sensor_id;sensor_type;location;lat;lon;timestamp;temperature;humidity
9403;DHT22;4741;49.834;10.740;2022-09-21T00:00:09;5.50;99.90
9403;DHT22;4741;49.834;10.740;2022-09-21T00:02:36;5.40;99.90
9403;DHT22;4741;49.834;10.740;2022-09-21T00:05:03;5.60;99.90
9403;DHT22;4741;49.834;10.740;2022-09-21T00:07:29;5.40;99.90
9403;DHT22;4741;49.834;10.740;2022-09-21T00:09:56;5.80;99.90
9403;DHT22;4741;49.834;10.740;2022-09-21T00:12:24;5.90;99.90
9403;DHT22;4741;49.834;10.740;2022-09-21T00:14:50;5.20;99.90
9403;DHT22;4741;49.834;10.740;2022-09-21T00:17:17;5.60;99.90
9403;DHT22;4741;49.834;10.740;2022-09-21T00:19:43;5.60;99.90
9403;DHT22;4741;49.834;10.740;2022-09-21T00:22:10;5.00;99.90
9403;DHT22;4741;49.834;10.740;2022-09-21T00:24:37;6.10;99.90
9403;DHT22;4741;49.834;10.740;2022-09-21T00:27:03;5.00;99.90
9403;DHT22;4741;49.834;10.740;2022-09-21T00:29:30;5.20;99.90
9403;DHT22;4741;49.834;10.740;2022-09-21T00:31:56;5.10;99.90
9403;DHT22;4741;49.834;10.740;2022-09-21T00:34:23;5.40;99.90
9403;DHT22;4741;49.834;10.740;2022-09-21T00:36:50;4.90;99.90
9403;DHT22;4741;49.834;10.740;2022-09-21T00:41:44;4.80;99.90
9403;DHT22;4741;49.834;10.740;2022-09-21T00:46:44;4.70;99.90
9403;DHT22;4741;49.834;10.740;2022-09-21T00:49:10;5.40;99.90
9403;DHT22;4741;49.834;10.740;2022-09-21T00:51:38;5.30;99.90
9403;DHT22;4741;49.834;10.740;2022-09-21T00:54:06;5.20;99.90
9403;DHT22;4741;49.834;10.740;2022-09-21T00:56:34;4.30;99.90
9403;DHT22;4741;49.834;10.740;2022-09-21T00:59:02;4.60;99.90
9403;DHT22;4741;49.834;10.740;2022-09-21T01:01:29;5.00;99.90
9403;DHT22;4741;49.834;10.740;2022-09-21T01:03:56;4.50;99.90
9403;DHT22;4741;49.834;10.740;2022-09-21T01:06:23;4.40;99.90
9403;DHT22;4741;49.834;10.740;2022-09-21T01:08:50;4.60;99.90
9403;DHT22;4741;49.834;10.740;2022-09-21T01:11:24;5.10;99.90
9403;DHT22;4741;49.834;10.740;2022-09-21T01:30:13;4.70;99.90
9403;DHT22;4741;49.834;10.740;2022-09-21T01:33:42;4.80;99.90
9403;DHT22;4741;49.834;10.740;2022-09-21T01:35:45;4.90;99.90
9403;DHT22;4741;49.834;10.740;2022-09-21T01:38:14;4.60;99.90
9403;DHT22;4741;49.834;10.740;2022-09-21T01:40:44;4.30;99.90
9403;DHT22;4741;49.834;10.740;2022-09-21T01:43:14;4.70;99.90
9403;DHT22;4741;49.834;10.740;2022-09-21T01:45:45;4.30;99.90
9403;DHT22;4741;49.834;10.740;2022-09-21T01:48:13;4.60;99.90
9403;DHT22;4741;49.834;10.740;2022-09-21T01:50:42;4.40;99.90
9403;DHT22;4741;49.834;10.740;2022-09-21T01:53:22;4.40;99.90
9403;DHT22;4741;49.834;10.740;2022-09-21T01:56:00;4.50;99.90
9403;DHT22;4741;49.834;10.740;2022-09-21T01:58:34;4.50;99.90
9403;DHT22;4741;49.834;10.740;2022-09-21T02:01:01;4.50;99.90
9403;DHT22;4741;49.834;10.740;2022-09-21T02:03:33;4.50;99.90
9403;DHT22;4741;49.834;10.740;2022-09-21T02:06:02;4.50;99.90
9403;DHT22;4741;49.834;10.740;2022-09-21T02:08:30;4.60;99.90
9403;DHT22;4741;49.834;10.740;2022-09-21T02:10:58;4.60;99.90
9403;DHT22;4741;49.834;10.740;2022-09-21T02:13:25;4.80;99.90
9403;DHT22;4741;49.834;10.740;2022-09-21T02:18:34;5.00;99.90
9403;DHT22;4741;49.834;10.740;2022-09-21T02:21:07;4.90;99.90
9403;DHT22;4741;49.834;10.740;2022-09-21T02:23:46;4.80;99.90
9403;DHT22;4741;49.834;10.740;2022-09-21T02:26:16;4.80;99.90
9403;DHT22;4741;49.834;10.740;2022-09-21T02:28:47;4.60;99.90
9403;DHT22;4741;49.834;10.740;2022-09-21T02:36:26;4.70;99.90
9403;DHT22;4741;49.834;10.740;2022-09-21T02:39:08;4.80;99.90
9403;DHT22;4741;49.834;10.740;2022-09-21T02:41:39;5.10;99.90
9403;DHT22;4741;49.834;10.740;2022-09-21T02:44:43;5.80;99.90
9403;DHT22;4741;49.834;10.740;2022-09-21T02:47:07;5.00;99.90
9403;DHT22;4741;49.834;10.740;2022-09-21T02:49:51;5.00;99.90
9403;DHT22;4741;49.834;10.740;2022-09-21T02:52:22;5.10;99.90
9403;DHT22;4741;49.834;10.740;2022-09-21T02:54:54;5.10;99.90
9403;DHT22;4741;49.834;10.740;2022-09-21T02:57:24;6.50;99.90
9403;DHT22;4741;49.834;10.740;2022-09-21T02:59:52;5.20;99.90
9403;DHT22;4741;49.834;10.740;2022-09-21T03:02:34;5.20;99.90
9403;DHT22;4741;49.834;10.740;2022-09-21T03:05:06;5.20;99.90
9403;DHT22;4741;49.834;10.740;2022-09-21T03:07:44;5.20;99.90
9403;DHT22;4741;49.834;10.740;2022-09-21T03:10:22;5.00;99.90
9403;DHT22;4741;49.834;10.740;2022-09-21T03:13:06;5.00;99.90
9403;DHT22;4741;49.834;10.740;2022-09-21T03:15:40;4.90;99.90
9403;DHT22;4741;49.834;10.740;2022-09-21T03:18:08;5.10;99.90
9403;DHT22;4741;49.834;10.740;2022-09-21T03:20:42;5.00;99.90
9403;DHT22;4741;49.834;10.740;2022-09-21T03:23:17;5.00;99.90
9403;DHT22;4741;49.834;10.740;2022-09-21T03:25:44;5.10;99.90
9403;DHT22;4741;49.834;10.740;2022-09-21T03:28:12;5.20;99.90
9403;DHT22;4741;49.834;10.740;2022-09-21T03:30:39;5.30;99.90
9403;DHT22;4741;49.834;10.740;2022-09-21T03:33:07;5.30;99.90
9403;DHT22;4741;49.834;10.740;2022-09-21T03:35:38;5.30;99.90
9403;DHT22;4741;49.834;10.740;2022-09-21T03:38:05;5.00;99.90
9403;DHT22;4741;49.834;10.740;2022-09-21T03:40:36;5.10;99.90
9403;DHT22;4741;49.834;10.740;2022-09-21T03:43:05;5.10;99.90
9403;DHT22;4741;49.834;10.740;2022-09-21T03:45:37;5.20;99.90
9403;DHT22;4741;49.834;10.740;2022-09-21T03:48:10;5.00;99.90
9403;DHT22;4741;49.834;10.740;2022-09-21T03:50:46;5.80;99.90
9403;DHT22;4741;49.834;10.740;2022-09-21T03:56:07;5.10;99.90
9403;DHT22;4741;49.834;10.740;2022-09-21T03:58:38;5.20;99.90
9403;DHT22;4741;49.834;10.740;2022-09-21T04:01:05;5.20;99.90
9403;DHT22;4741;49.834;10.740;2022-09-21T04:04:11;5.20;99.90
9403;DHT22;4741;49.834;10.740;2022-09-21T04:06:37;5.20;99.90
9403;DHT22;4741;49.834;10.740;2022-09-21T04:09:04;5.20;99.90
9403;DHT22;4741;49.834;10.740;2022-09-21T04:11:32;5.10;99.90
9403;DHT22;4741;49.834;10.740;2022-09-21T04:14:14;5.20;99.90
9403;DHT22;4741;49.834;10.740;2022-09-21T04:17:10;5.10;99.90
9403;DHT22;4741;49.834;10.740;2022-09-21T04:19:58;5.20;99.90
9403;DHT22;4741;49.834;10.740;2022-09-21T04:22:27;5.20;99.90
9403;DHT22;4741;49.834;10.740;2022-09-21T04:25:02;5.20;99.90
9403;DHT22;4741;49.834;10.740;2022-09-21T04:27:46;5.30;99.90
9403;DHT22;4741;49.834;10.740;2022-09-21T04:32:46;5.40;99.90
9403;DHT22;4741;49.834;10.740;2022-09-21T04:35:13;5.40;99.90
9403;DHT22;4741;49.834;10.740;2022-09-21T04:37:45;5.40;99.90
9403;DHT22;4741;49.834;10.740;2022-09-21T04:40:21;5.40;99.90
9403;DHT22;4741;49.834;10.740;2022-09-21T04:42:49;5.40;99.90
9403;DHT22;4741;49.834;10.740;2022-09-21T04:45:17;5.40;99.90
9403;DHT22;4741;49.834;10.740;2022-09-21T04:47:48;6.80;99.90
9403;DHT22;4741;49.834;10.740;2022-09-21T04:50:15;5.10;99.90
9403;DHT22;4741;49.834;10.740;2022-09-21T04:52:42;5.10;99.90
9403;DHT22;4741;49.834;10.740;2022-09-21T04:55:09;5.00;99.90
9403;DHT22;4741;49.834;10.740;2022-09-21T04:57:35;5.10;99.90
9403;DHT22;4741;49.834;10.740;2022-09-21T05:00:03;5.10;99.90
9403;DHT22;4741;49.834;10.740;2022-09-21T05:02:30;5.10;99.90
9403;DHT22;4741;49.834;10.740;2022-09-21T05:04:58;5.30;99.90
9403;DHT22;4741;49.834;10.740;2022-09-21T05:07:27;5.20;99.90
9403;DHT22;4741;49.834;10.740;2022-09-21T05:09:55;5.30;99.90
9403;DHT22;4741;49.834;10.740;2022-09-21T05:12:31;5.30;99.90
9403;DHT22;4741;49.834;10.740;2022-09-21T05:14:58;5.30;99.90
9403;DHT22;4741;49.834;10.740;2022-09-21T05:17:25;5.20;99.90
9403;DHT22;4741;49.834;10.740;2022-09-21T05:19:52;6.90;99.90
9403;DHT22;4741;49.834;10.740;2022-09-21T05:22:19;5.30;99.90
9403;DHT22;4741;49.834;10.740;2022-09-21T05:24:46;6.80;99.90
9403;DHT22;4741;49.834;10.740;2022-09-21T05:27:13;4.60;99.90
9403;DHT22;4741;49.834;10.740;2022-09-21T05:29:40;4.70;99.90
9403;DHT22;4741;49.834;10.740;2022-09-21T05:32:09;6.20;99.90
9403;DHT22;4741;49.834;10.740;2022-09-21T05:34:47;5.30;99.90
9403;DHT22;4741;49.834;10.740;2022-09-21T05:37:35;5.40;99.90
9403;DHT22;4741;49.834;10.740;2022-09-21T05:40:04;5.40;99.90
9403;DHT22;4741;49.834;10.740;2022-09-21T05:42:31;5.60;99.90
9403;DHT22;4741;49.834;10.740;2022-09-21T05:44:58;5.60;99.90
9403;DHT22;4741;49.834;10.740;2022-09-21T05:50:16;5.60;99.90
9403;DHT22;4741;49.834;10.740;2022-09-21T05:58:27;5.60;99.90
9403;DHT22;4741;49.834;10.740;2022-09-21T06:01:01;5.60;99.90
9403;DHT22;4741;49.834;10.740;2022-09-21T06:03:31;5.60;99.90
9403;DHT22;4741;49.834;10.740;2022-09-21T06:06:01;5.60;99.90
9403;DHT22;4741;49.834;10.740;2022-09-21T06:08:28;7.00;99.90
9403;DHT22;4741;49.834;10.740;2022-09-21T06:10:55;5.30;99.90
9403;DHT22;4741;49.834;10.740;2022-09-21T06:13:22;5.30;99.90
9403;DHT22;4741;49.834;10.740;2022-09-21T06:15:49;5.40;99.90
9403;DHT22;4741;49.834;10.740;2022-09-21T06:18:16;5.50;99.90
9403;DHT22;4741;49.834;10.740;2022-09-21T06:20:44;5.60;99.90
9403;DHT22;4741;49.834;10.740;2022-09-21T06:23:11;5.50;99.90
9403;DHT22;4741;49.834;10.740;2022-09-21T06:25:38;5.20;99.90
9403;DHT22;4741;49.834;10.740;2022-09-21T06:28:05;5.50;99.90
9403;DHT22;4741;49.834;10.740;2022-09-21T06:30:32;5.40;99.90
9403;DHT22;4741;49.834;10.740;2022-09-21T06:33:00;5.60;99.90
9403;DHT22;4741;49.834;10.740;2022-09-21T06:35:28;5.60;99.90
9403;DHT22;4741;49.834;10.740;2022-09-21T06:37:58;5.60;99.90
9403;DHT22;4741;49.834;10.740;2022-09-21T06:40:28;5.70;99.90
9403;DHT22;4741;49.834;10.740;2022-09-21T06:42:56;5.70;99.90
9403;DHT22;4741;49.834;10.740;2022-09-21T06:45:24;5.60;99.90
9403;DHT22;4741;49.834;10.740;2022-09-21T06:47:51;5.60;99.90
9403;DHT22;4741;49.834;10.740;2022-09-21T06:50:18;5.70;99.90
9403;DHT22;4741;49.834;10.740;2022-09-21T06:52:44;5.70;99.90
9403;DHT22;4741;49.834;10.740;2022-09-21T06:57:39;5.90;99.90
9403;DHT22;4741;49.834;10.740;2022-09-21T07:00:07;5.80;99.90
9403;DHT22;4741;49.834;10.740;2022-09-21T07:02:34;5.80;99.90
9403;DHT22;4741;49.834;10.740;2022-09-21T07:05:02;5.90;99.90
9403;DHT22;4741;49.834;10.740;2022-09-21T07:07:29;6.00;99.90
9403;DHT22;4741;49.834;10.740;2022-09-21T07:09:56;6.00;99.90
9403;DHT22;4741;49.834;10.740;2022-09-21T07:12:33;6.00;99.90
9403;DHT22;4741;49.834;10.740;2022-09-21T07:15:01;6.10;99.90
9403;DHT22;4741;49.834;10.740;2022-09-21T07:17:31;6.20;99.90
9403;DHT22;4741;49.834;10.740;2022-09-21T07:19:58;6.00;99.90
9403;DHT22;4741;49.834;10.740;2022-09-21T07:22:27;6.10;99.90
9403;DHT22;4741;49.834;10.740;2022-09-21T07:24:54;6.10;99.90
9403;DHT22;4741;49.834;10.740;2022-09-21T07:27:20;6.10;99.90
9403;DHT22;4741;49.834;10.740;2022-09-21T07:29:47;6.10;99.90
9403;DHT22;4741;49.834;10.740;2022-09-21T07:34:41;6.30;99.90
9403;DHT22;4741;49.834;10.740;2022-09-21T07:37:07;6.00;99.90
9403;DHT22;4741;49.834;10.740;2022-09-21T07:39:34;6.50;99.90
9403;DHT22;4741;49.834;10.740;2022-09-21T07:42:01;6.60;99.90
9403;DHT22;4741;49.834;10.740;2022-09-21T07:44:27;7.10;99.90
9403;DHT22;4741;49.834;10.740;2022-09-21T07:46:54;6.60;99.90
9403;DHT22;4741;49.834;10.740;2022-09-21T07:49:21;6.70;99.90
9403;DHT22;4741;49.834;10.740;2022-09-21T07:51:48;6.70;99.90
9403;DHT22;4741;49.834;10.740;2022-09-21T07:54:15;6.50;99.90
9403;DHT22;4741;49.834;10.740;2022-09-21T07:59:28;7.00;99.90
9403;DHT22;4741;49.834;10.740;2022-09-21T08:01:57;7.10;99.90
9403;DHT22;4741;49.834;10.740;2022-09-21T08:04:25;6.90;99.90
9403;DHT22;4741;49.834;10.740;2022-09-21T08:06:52;7.10;99.90
9403;DHT22;4741;49.834;10.740;2022-09-21T08:09:18;7.20;99.90
9403;DHT22;4741;49.834;10.740;2022-09-21T08:11:45;7.30;99.90
9403;DHT22;4741;49.834;10.740;2022-09-21T08:14:12;7.40;99.90
9403;DHT22;4741;49.834;10.740;2022-09-21T08:16:51;7.40;99.90
9403;DHT22;4741;49.834;10.740;2022-09-21T08:19:18;7.60;99.90
9403;DHT22;4741;49.834;10.740;2022-09-21T08:24:13;7.00;99.90
9403;DHT22;4741;49.834;10.740;2022-09-21T08:29:06;8.00;99.90
9403;DHT22;4741;49.834;10.740;2022-09-21T08:31:35;8.00;99.90
9403;DHT22;4741;49.834;10.740;2022-09-21T08:34:02;7.90;99.90
9403;DHT22;4741;49.834;10.740;2022-09-21T08:36:29;8.00;99.90
9403;DHT22;4741;49.834;10.740;2022-09-21T08:38:55;8.10;99.90
9403;DHT22;4741;49.834;10.740;2022-09-21T08:41:34;8.10;99.90
9403;DHT22;4741;49.834;10.740;2022-09-21T08:44:13;8.30;99.90
9403;DHT22;4741;49.834;10.740;2022-09-21T08:46:40;8.10;99.90
9403;DHT22;4741;49.834;10.740;2022-09-21T08:51:46;8.30;99.90
9403;DHT22;4741;49.834;10.740;2022-09-21T08:54:19;8.40;99.90
9403;DHT22;4741;49.834;10.740;2022-09-21T08:56:48;8.20;99.90
9403;DHT22;4741;49.834;10.740;2022-09-21T08:59:32;9.00;99.90
9403;DHT22;4741;49.834;10.740;2022-09-21T09:02:03;8.40;99.90
9403;DHT22;4741;49.834;10.740;2022-09-21T09:04:37;8.40;99.90
9403;DHT22;4741;49.834;10.740;2022-09-21T09:07:08;8.40;99.90
9403;DHT22;4741;49.834;10.740;2022-09-21T09:14:46;9.20;99.90
9403;DHT22;4741;49.834;10.740;2022-09-21T09:19:49;9.30;99.90
9403;DHT22;4741;49.834;10.740;2022-09-21T09:22:22;9.40;99.90
9403;DHT22;4741;49.834;10.740;2022-09-21T09:24:51;9.40;99.90
9403;DHT22;4741;49.834;10.740;2022-09-21T09:30:07;9.10;99.90
9403;DHT22;4741;49.834;10.740;2022-09-21T09:40:11;10.40;99.90
9403;DHT22;4741;49.834;10.740;2022-09-21T09:52:48;11.00;99.90
9403;DHT22;4741;49.834;10.740;2022-09-21T09:55:22;10.40;99.90
9403;DHT22;4741;49.834;10.740;2022-09-21T10:02:51;11.50;99.90
9403;DHT22;4741;49.834;10.740;2022-09-21T10:05:22;11.80;99.90
9403;DHT22;4741;49.834;10.740;2022-09-21T10:07:49;12.20;99.90
9403;DHT22;4741;49.834;10.740;2022-09-21T10:10:36;12.80;99.90
9403;DHT22;4741;49.834;10.740;2022-09-21T10:15:29;12.90;99.90
9403;DHT22;4741;49.834;10.740;2022-09-21T10:17:57;13.30;99.90
9403;DHT22;4741;49.834;10.740;2022-09-21T10:20:26;13.30;99.90
9403;DHT22;4741;49.834;10.740;2022-09-21T10:22:54;12.80;99.90
9403;DHT22;4741;49.834;10.740;2022-09-21T10:25:21;14.10;99.90
9403;DHT22;4741;49.834;10.740;2022-09-21T10:27:49;13.30;99.90
9403;DHT22;4741;49.834;10.740;2022-09-21T10:32:56;13.70;99.90
9403;DHT22;4741;49.834;10.740;2022-09-21T10:35:23;14.00;99.90
9403;DHT22;4741;49.834;10.740;2022-09-21T10:42:47;13.50;99.90
9403;DHT22;4741;49.834;10.740;2022-09-21T10:45:18;14.80;99.90
9403;DHT22;4741;49.834;10.740;2022-09-21T10:57:34;15.20;99.90
9403;DHT22;4741;49.834;10.740;2022-09-21T11:02:46;14.80;99.90
9403;DHT22;4741;49.834;10.740;2022-09-21T11:05:14;14.90;99.90
9403;DHT22;4741;49.834;10.740;2022-09-21T11:12:46;16.00;99.90
9403;DHT22;4741;49.834;10.740;2022-09-21T11:15:16;15.70;99.90
9403;DHT22;4741;49.834;10.740;2022-09-21T11:17:48;15.70;99.90
9403;DHT22;4741;49.834;10.740;2022-09-21T11:28:38;16.60;99.90
9403;DHT22;4741;49.834;10.740;2022-09-21T11:34:38;17.20;99.90
9403;DHT22;4741;49.834;10.740;2022-09-21T11:42:33;17.70;99.90
9403;DHT22;4741;49.834;10.740;2022-09-21T11:45:10;18.40;99.90
9403;DHT22;4741;49.834;10.740;2022-09-21T11:51:01;19.40;99.90
9403;DHT22;4741;49.834;10.740;2022-09-21T11:56:12;19.30;99.90
9403;DHT22;4741;49.834;10.740;2022-09-21T11:59:01;19.80;99.90
9403;DHT22;4741;49.834;10.740;2022-09-21T12:06:44;20.00;99.90
9403;DHT22;4741;49.834;10.740;2022-09-21T12:09:28;19.80;99.90
9403;DHT22;4741;49.834;10.740;2022-09-21T12:12:10;20.30;99.90
9403;DHT22;4741;49.834;10.740;2022-09-21T12:14:44;20.50;99.90
9403;DHT22;4741;49.834;10.740;2022-09-21T12:17:22;20.90;99.90
9403;DHT22;4741;49.834;10.740;2022-09-21T12:27:24;22.80;99.90
9403;DHT22;4741;49.834;10.740;2022-09-21T12:29:54;23.00;99.90
9403;DHT22;4741;49.834;10.740;2022-09-21T12:32:57;23.70;99.90
9403;DHT22;4741;49.834;10.740;2022-09-21T12:37:46;22.00;99.90
9403;DHT22;4741;49.834;10.740;2022-09-21T12:40:19;23.10;99.90
9403;DHT22;4741;49.834;10.740;2022-09-21T12:42:55;23.20;99.90
9403;DHT22;4741;49.834;10.740;2022-09-21T12:45:29;21.70;99.90
9403;DHT22;4741;49.834;10.740;2022-09-21T12:50:45;22.90;99.90
9403;DHT22;4741;49.834;10.740;2022-09-21T12:53:21;23.90;99.90
9403;DHT22;4741;49.834;10.740;2022-09-21T12:55:59;23.80;99.90
9403;DHT22;4741;49.834;10.740;2022-09-21T12:59:24;23.80;99.90
9403;DHT22;4741;49.834;10.740;2022-09-21T13:06:47;22.20;98.40
9403;DHT22;4741;49.834;10.740;2022-09-21T13:09:18;22.20;99.90
9403;DHT22;4741;49.834;10.740;2022-09-21T13:11:55;22.30;99.90
9403;DHT22;4741;49.834;10.740;2022-09-21T13:14:23;23.50;98.60
9403;DHT22;4741;49.834;10.740;2022-09-21T13:16:58;23.90;98.00
9403;DHT22;4741;49.834;10.740;2022-09-21T13:19:27;23.60;96.60
9403;DHT22;4741;49.834;10.740;2022-09-21T13:24:41;25.40;97.20
9403;DHT22;4741;49.834;10.740;2022-09-21T13:27:09;25.40;95.70
9403;DHT22;4741;49.834;10.740;2022-09-21T13:29:36;23.50;94.20
9403;DHT22;4741;49.834;10.740;2022-09-21T13:39:43;24.10;98.30
9403;DHT22;4741;49.834;10.740;2022-09-21T13:44:55;26.20;94.50
9403;DHT22;4741;49.834;10.740;2022-09-21T13:47:27;25.10;92.30
9403;DHT22;4741;49.834;10.740;2022-09-21T13:52:27;25.20;91.10
9403;DHT22;4741;49.834;10.740;2022-09-21T13:54:57;25.10;91.20
9403;DHT22;4741;49.834;10.740;2022-09-21T13:57:43;24.50;91.90
9403;DHT22;4741;49.834;10.740;2022-09-21T14:02:39;24.90;86.00
9403;DHT22;4741;49.834;10.740;2022-09-21T14:05:28;26.00;90.30
9403;DHT22;4741;49.834;10.740;2022-09-21T14:10:33;24.50;86.80
9403;DHT22;4741;49.834;10.740;2022-09-21T14:13:02;24.50;88.10
9403;DHT22;4741;49.834;10.740;2022-09-21T14:18:19;25.30;91.00
9403;DHT22;4741;49.834;10.740;2022-09-21T14:25:46;25.20;89.60
9403;DHT22;4741;49.834;10.740;2022-09-21T14:28:13;25.50;88.00
9403;DHT22;4741;49.834;10.740;2022-09-21T14:33:19;25.20;87.90
9403;DHT22;4741;49.834;10.740;2022-09-21T14:35:46;25.60;85.30
9403;DHT22;4741;49.834;10.740;2022-09-21T14:38:24;26.10;85.60
9403;DHT22;4741;49.834;10.740;2022-09-21T14:43:23;26.20;87.90
9403;DHT22;4741;49.834;10.740;2022-09-21T14:51:02;26.00;85.80
9403;DHT22;4741;49.834;10.740;2022-09-21T15:01:19;25.70;84.80
9403;DHT22;4741;49.834;10.740;2022-09-21T15:06:21;26.00;84.40
9403;DHT22;4741;49.834;10.740;2022-09-21T15:12:09;25.80;91.90
9403;DHT22;4741;49.834;10.740;2022-09-21T15:14:39;26.40;83.40
9403;DHT22;4741;49.834;10.740;2022-09-21T15:17:21;24.90;86.50
9403;DHT22;4741;49.834;10.740;2022-09-21T15:19:49;24.80;94.80
9403;DHT22;4741;49.834;10.740;2022-09-21T15:22:17;25.30;92.30
9403;DHT22;4741;49.834;10.740;2022-09-21T15:24:54;25.60;85.90
9403;DHT22;4741;49.834;10.740;2022-09-21T15:35:19;24.70;78.00
9403;DHT22;4741;49.834;10.740;2022-09-21T15:37:46;25.30;75.40
9403;DHT22;4741;49.834;10.740;2022-09-21T15:42:48;23.70;84.80
9403;DHT22;4741;49.834;10.740;2022-09-21T15:47:52;24.70;81.80
9403;DHT22;4741;49.834;10.740;2022-09-21T15:50:18;25.20;81.70
9403;DHT22;4741;49.834;10.740;2022-09-21T15:53:02;24.10;80.60
9403;DHT22;4741;49.834;10.740;2022-09-21T15:55:30;23.50;83.10
9403;DHT22;4741;49.834;10.740;2022-09-21T15:57:59;24.50;83.30
9403;DHT22;4741;49.834;10.740;2022-09-21T16:00:29;24.60;84.10
9403;DHT22;4741;49.834;10.740;2022-09-21T16:02:58;24.20;84.90
9403;DHT22;4741;49.834;10.740;2022-09-21T16:08:26;24.30;85.00
9403;DHT22;4741;49.834;10.740;2022-09-21T16:11:09;24.10;86.60
9403;DHT22;4741;49.834;10.740;2022-09-21T16:16:21;21.40;90.90
9403;DHT22;4741;49.834;10.740;2022-09-21T16:18:49;20.20;93.40
9403;DHT22;4741;49.834;10.740;2022-09-21T16:21:32;19.80;94.70
9403;DHT22;4741;49.834;10.740;2022-09-21T16:27:22;18.30;99.90
9403;DHT22;4741;49.834;10.740;2022-09-21T16:29:50;17.80;99.90
9403;DHT22;4741;49.834;10.740;2022-09-21T16:37:21;16.80;99.90
9403;DHT22;4741;49.834;10.740;2022-09-21T16:42:20;16.30;99.90
9403;DHT22;4741;49.834;10.740;2022-09-21T16:44:47;16.20;99.90
9403;DHT22;4741;49.834;10.740;2022-09-21T16:47:18;16.00;99.90
9403;DHT22;4741;49.834;10.740;2022-09-21T16:49:51;15.80;99.90
9403;DHT22;4741;49.834;10.740;2022-09-21T16:52:22;15.60;99.90
9403;DHT22;4741;49.834;10.740;2022-09-21T16:54:49;15.50;99.90
9403;DHT22;4741;49.834;10.740;2022-09-21T16:57:16;15.40;99.90
9403;DHT22;4741;49.834;10.740;2022-09-21T16:59:42;15.20;99.90
9403;DHT22;4741;49.834;10.740;2022-09-21T17:04:39;15.00;99.90
9403;DHT22;4741;49.834;10.740;2022-09-21T17:07:06;14.80;99.90
9403;DHT22;4741;49.834;10.740;2022-09-21T17:09:33;14.60;99.90
9403;DHT22;4741;49.834;10.740;2022-09-21T17:12:02;14.50;99.90
9403;DHT22;4741;49.834;10.740;2022-09-21T17:19:29;13.90;99.90
9403;DHT22;4741;49.834;10.740;2022-09-21T17:21:57;13.30;99.90
9403;DHT22;4741;49.834;10.740;2022-09-21T17:24:25;13.00;99.90
9403;DHT22;4741;49.834;10.740;2022-09-21T17:27:12;12.80;99.90
9403;DHT22;4741;49.834;10.740;2022-09-21T17:29:38;12.90;99.90
9403;DHT22;4741;49.834;10.740;2022-09-21T17:32:13;13.00;99.90
9403;DHT22;4741;49.834;10.740;2022-09-21T17:34:40;12.80;99.90
9403;DHT22;4741;49.834;10.740;2022-09-21T17:37:07;12.30;99.90
9403;DHT22;4741;49.834;10.740;2022-09-21T17:39:37;12.30;99.90
9403;DHT22;4741;49.834;10.740;2022-09-21T17:42:09;12.30;99.90
9403;DHT22;4741;49.834;10.740;2022-09-21T17:47:25;12.30;99.90
9403;DHT22;4741;49.834;10.740;2022-09-21T17:49:56;12.20;99.90
9403;DHT22;4741;49.834;10.740;2022-09-21T17:52:24;12.10;99.90
9403;DHT22;4741;49.834;10.740;2022-09-21T17:55:10;12.10;99.90
9403;DHT22;4741;49.834;10.740;2022-09-21T18:00:16;11.30;99.90
9403;DHT22;4741;49.834;10.740;2022-09-21T18:02:43;10.50;99.90
9403;DHT22;4741;49.834;10.740;2022-09-21T18:05:14;10.50;99.90
9403;DHT22;4741;49.834;10.740;2022-09-21T18:07:43;10.50;99.90
9403;DHT22;4741;49.834;10.740;2022-09-21T18:10:11;10.40;99.90
9403;DHT22;4741;49.834;10.740;2022-09-21T18:15:20;10.20;99.90
9403;DHT22;4741;49.834;10.740;2022-09-21T18:20:31;10.30;99.90
9403;DHT22;4741;49.834;10.740;2022-09-21T18:25:54;10.50;99.90
9403;DHT22;4741;49.834;10.740;2022-09-21T18:28:23;10.50;99.90
9403;DHT22;4741;49.834;10.740;2022-09-21T18:30:58;10.60;99.90
9403;DHT22;4741;49.834;10.740;2022-09-21T18:33:38;10.40;99.90
9403;DHT22;4741;49.834;10.740;2022-09-21T18:38:45;9.90;99.90
9403;DHT22;4741;49.834;10.740;2022-09-21T18:41:22;9.80;99.90
9403;DHT22;4741;49.834;10.740;2022-09-21T19:03:35;9.40;99.90
9403;DHT22;4741;49.834;10.740;2022-09-21T19:19:32;9.50;99.90
9403;DHT22;4741;49.834;10.740;2022-09-21T19:22:01;9.40;99.90
9403;DHT22;4741;49.834;10.740;2022-09-21T19:24:30;9.30;99.90
9403;DHT22;4741;49.834;10.740;2022-09-21T19:27:08;9.20;99.90
9403;DHT22;4741;49.834;10.740;2022-09-21T19:32:30;9.30;99.90
9403;DHT22;4741;49.834;10.740;2022-09-21T19:34:58;9.20;99.90
9403;DHT22;4741;49.834;10.740;2022-09-21T19:37:26;9.10;99.90
9403;DHT22;4741;49.834;10.740;2022-09-21T19:39:53;9.00;99.90
9403;DHT22;4741;49.834;10.740;2022-09-21T19:42:24;8.90;99.90
9403;DHT22;4741;49.834;10.740;2022-09-21T19:45:01;8.90;99.90
9403;DHT22;4741;49.834;10.740;2022-09-21T19:47:32;8.70;99.90
9403;DHT22;4741;49.834;10.740;2022-09-21T19:52:39;8.90;99.90
9403;DHT22;4741;49.834;10.740;2022-09-21T19:55:16;8.60;99.90
9403;DHT22;4741;49.834;10.740;2022-09-21T20:00:49;8.00;99.90
9403;DHT22;4741;49.834;10.740;2022-09-21T20:05:58;7.80;99.90
9403;DHT22;4741;49.834;10.740;2022-09-21T20:10:59;8.20;99.90
9403;DHT22;4741;49.834;10.740;2022-09-21T20:13:38;8.20;99.90
9403;DHT22;4741;49.834;10.740;2022-09-21T20:19:00;7.80;99.90
9403;DHT22;4741;49.834;10.740;2022-09-21T20:21:36;7.60;99.90
9403;DHT22;4741;49.834;10.740;2022-09-21T20:27:15;7.50;99.90
9403;DHT22;4741;49.834;10.740;2022-09-21T20:29:44;7.50;99.90
9403;DHT22;4741;49.834;10.740;2022-09-21T20:32:12;7.50;99.90
9403;DHT22;4741;49.834;10.740;2022-09-21T20:34:39;7.50;99.90
9403;DHT22;4741;49.834;10.740;2022-09-21T20:37:10;7.50;99.90
9403;DHT22;4741;49.834;10.740;2022-09-21T20:39:38;7.80;99.90
9403;DHT22;4741;49.834;10.740;2022-09-21T20:42:04;7.60;99.90
9403;DHT22;4741;49.834;10.740;2022-09-21T20:44:31;7.60;99.90
9403;DHT22;4741;49.834;10.740;2022-09-21T20:46:58;7.40;99.90
9403;DHT22;4741;49.834;10.740;2022-09-21T20:49:26;7.60;99.90
9403;DHT22;4741;49.834;10.740;2022-09-21T20:59:15;7.40;99.90
9403;DHT22;4741;49.834;10.740;2022-09-21T21:01:42;7.40;99.90
9403;DHT22;4741;49.834;10.740;2022-09-21T21:04:08;7.40;99.90
9403;DHT22;4741;49.834;10.740;2022-09-21T21:06:35;8.50;99.90
9403;DHT22;4741;49.834;10.740;2022-09-21T21:09:03;7.40;99.90
9403;DHT22;4741;49.834;10.740;2022-09-21T21:11:43;7.30;99.90
9403;DHT22;4741;49.834;10.740;2022-09-21T21:14:10;7.20;99.90
9403;DHT22;4741;49.834;10.740;2022-09-21T21:16:37;8.20;99.90
9403;DHT22;4741;49.834;10.740;2022-09-21T21:19:04;7.20;99.90
9403;DHT22;4741;49.834;10.740;2022-09-21T21:21:30;7.00;99.90
9403;DHT22;4741;49.834;10.740;2022-09-21T21:23:57;6.90;99.90
9403;DHT22;4741;49.834;10.740;2022-09-21T21:26:43;7.10;99.90
9403;DHT22;4741;49.834;10.740;2022-09-21T21:29:28;7.10;99.90
9403;DHT22;4741;49.834;10.740;2022-09-21T21:31:54;7.00;99.90
9403;DHT22;4741;49.834;10.740;2022-09-21T21:34:21;7.00;99.90
9403;DHT22;4741;49.834;10.740;2022-09-21T21:36:48;6.80;99.90
9403;DHT22;4741;49.834;10.740;2022-09-21T21:41:42;6.70;99.90
9403;DHT22;4741;49.834;10.740;2022-09-21T21:49:04;6.30;99.90
9403;DHT22;4741;49.834;10.740;2022-09-21T21:51:30;6.30;99.90
9403;DHT22;4741;49.834;10.740;2022-09-21T21:53:57;6.40;99.90
9403;DHT22;4741;49.834;10.740;2022-09-21T21:56:24;6.50;99.90